Glennie, Michigan
Current Conditions -  °F | °C
As of 5:33 AM on Monday 22 Dec 2014 (Local Time) from KOSC Reporting Station
Scattered Clouds Scattered Clouds  
Wind Chill: 28°   Ceiling: Unl
Heat Index: 28°   Visibility: 7mi
Dew Point: 26°   Wind: 0mph
Humidity: 89%   Direction: NA
Pressure: 30.13"   Gusts: NA
Location:  44.56°N, 83.73°W
Report Text: KOSC 221033Z AUTO 00000KT 7SM SCT017 M02/M03 A3013 RMK AO2 T10201036
Loading
Personal Weather Stations






























Interactive Weather Map New forecast layout! Learn more

10-Day Weather Forecast

Advertisements
Track Severe Weather on mobile